Time;durP1;ratioP1;P1;durP2;ratioP2;P2;SDS_P1;SDS_P2;PMS_P1;PMS_P2;Temp;Humidity;BMP_temperature;BMP_pressure;BME280_temperature;BME280_humidity;BME280_pressure;Samples;Min_cycle;Max_cycle;Signal;HPM_P1;HPM_P2
2022/10/23 00:01:31;;;;;;;6.28;2.75;;;;;;;;;;5049837;28;20037;-70
2022/10/23 00:04:00;;;;;;;6.47;2.80;;;;;;;;;;5048735;28;20029;-70
2022/10/23 00:06:27;;;;;;;8.30;2.45;;;;;;;;;;5047725;28;20115;-72
2022/10/23 00:08:52;;;;;;;9.18;2.80;;;;;;;;;;5051384;28;20059;-72
2022/10/23 00:11:22;;;;;;;8.32;3.03;;;;;;;;;;5050268;28;20032;-72
2022/10/23 00:13:49;;;;;;;10.55;2.65;;;;;;;;;;5049460;28;20099;-73
2022/10/23 00:16:14;;;;;;;9.40;2.63;;;;;;;;;;5050794;28;20063;-71
2022/10/23 00:18:40;;;;;;;6.75;2.25;;;;;;;;;;5041057;28;20045;-70
2022/10/23 00:21:08;;;;;;;8.85;2.65;;;;;;;;;;5041929;28;20048;-70
2022/10/23 00:23:34;;;;;;;8.02;2.20;;;;;;;;;;5040976;28;20058;-70
2022/10/23 00:26:00;;;;;;;11.10;3.08;;;;;;;;;;5041078;28;20346;-73
2022/10/23 00:28:26;;;;;;;6.68;2.67;;;;;;;;;;5035849;28;20079;-78
2022/10/23 00:30:51;;;;;;;9.20;2.88;;;;;;;;;;5041111;28;20048;-73
2022/10/23 00:33:17;;;;;;;10.38;2.65;;;;;;;;;;5040658;28;20424;-71
2022/10/23 00:35:43;;;;;;;8.80;2.45;;;;;;;;;;5039006;28;20531;-71
2022/10/23 00:38:11;;;;;;;14.30;2.63;;;;;;;;;;5036540;28;20029;-71
2022/10/23 00:40:37;;;;;;;7.97;2.78;;;;;;;;;;5041558;28;20037;-71
2022/10/23 00:43:03;;;;;;;16.20;2.60;;;;;;;;;;5042083;28;20376;-73
2022/10/23 00:45:33;;;;;;;8.95;2.30;;;;;;;;;;5043010;28;20037;-72
2022/10/23 00:48:00;;;;;;;10.95;3.00;;;;;;;;;;5039953;28;20029;-74
2022/10/23 00:50:28;;;;;;;7.30;2.53;;;;;;;;;;5038412;28;20037;-71
2022/10/23 00:52:55;;;;;;;6.55;2.30;;;;;;;;;;5035706;28;20493;-71
2022/10/23 00:55:23;;;;;;;8.63;2.25;;;;;;;;;;5041491;28;20468;-72
2022/10/23 00:57:50;;;;;;;10.52;2.67;;;;;;;;;;5040607;28;20045;-72
2022/10/23 01:00:21;;;;;;;5.82;2.00;;;;;;;;;;5046655;28;20032;-71
2022/10/23 01:02:47;;;;;;;9.93;2.15;;;;;;;;;;5042822;28;20056;-72
2022/10/23 01:05:12;;;;;;;6.40;2.40;;;;;;;;;;5045326;28;20056;-73
2022/10/23 01:07:54;;;;;;;13.27;2.47;;;;;;;;;;5038882;28;20041;-72
2022/10/23 01:10:35;;;;;;;5.85;2.15;;;;;;;;;;5033278;28;20123;-72
2022/10/23 01:13:22;;;;;;;10.15;2.53;;;;;;;;;;5043061;28;20580;-73
2022/10/23 01:15:57;;;;;;;8.65;2.20;;;;;;;;;;5042735;28;20450;-71
2022/10/23 01:18:35;;;;;;;7.43;2.33;;;;;;;;;;5045040;28;20091;-71
2022/10/23 01:21:14;;;;;;;8.68;2.63;;;;;;;;;;5041477;28;20496;-71
2022/10/23 01:24:18;;;;;;;3.80;1.95;;;;;;;;;;5043633;28;20045;-71
2022/10/23 01:27:14;;;;;;;3.20;1.70;;;;;;;;;;5040323;28;20033;-71
2022/10/23 01:29:49;;;;;;;5.22;2.15;;;;;;;;;;5036034;28;20049;-71
2022/10/23 01:32:32;;;;;;;4.80;1.83;;;;;;;;;;5042055;28;20080;-72
2022/10/23 01:35:04;;;;;;;4.07;1.83;;;;;;;;;;5045500;28;20083;-71
2022/10/23 01:37:39;;;;;;;8.88;2.20;;;;;;;;;;5038085;28;20531;-72
2022/10/23 01:40:10;;;;;;;9.85;2.25;;;;;;;;;;5039504;28;20043;-72
2022/10/23 01:42:43;;;;;;;7.55;2.10;;;;;;;;;;5041460;28;20045;-71
2022/10/23 01:45:14;;;;;;;7.05;1.92;;;;;;;;;;5046529;28;20033;-71
2022/10/23 01:47:40;;;;;;;7.65;1.70;;;;;;;;;;5041242;28;20111;-72
2022/10/23 01:50:08;;;;;;;6.43;2.20;;;;;;;;;;5036939;28;20626;-72
2022/10/23 01:52:34;;;;;;;13.57;2.30;;;;;;;;;;5045546;28;20029;-72
2022/10/23 01:55:00;;;;;;;11.43;2.30;;;;;;;;;;5042669;28;20309;-73
2022/10/23 01:57:30;;;;;;;9.43;2.47;;;;;;;;;;5038690;28;20045;-71
2022/10/23 02:00:08;;;;;;;5.22;1.98;;;;;;;;;;5036778;28;20029;-71
2022/10/23 02:02:36;;;;;;;5.68;2.30;;;;;;;;;;5038438;28;20503;-75
2022/10/23 02:05:22;;;;;;;4.68;2.00;;;;;;;;;;5036473;28;20603;-70
2022/10/23 02:07:59;;;;;;;6.97;1.98;;;;;;;;;;5022836;22;20141;-69
2022/10/23 02:10:36;;;;;;;8.35;2.20;;;;;;;;;;4993362;28;20053;-70
2022/10/23 02:13:26;;;;;;;7.18;2.10;;;;;;;;;;5002015;28;20046;-70
2022/10/23 02:16:18;;;;;;;8.40;2.30;;;;;;;;;;4981743;28;20043;-72
2022/10/23 02:18:53;;;;;;;6.10;2.08;;;;;;;;;;4983657;28;20097;-71
2022/10/23 02:21:52;;;;;;;7.43;2.22;;;;;;;;;;4986410;28;20022;-71
2022/10/23 02:24:29;;;;;;;7.63;2.13;;;;;;;;;;4981399;28;20062;-69
2022/10/23 02:27:01;;;;;;;10.43;2.22;;;;;;;;;;4981817;28;20034;-69
2022/10/23 02:29:43;;;;;;;11.43;2.70;;;;;;;;;;4984532;28;20407;-68
2022/10/23 02:32:11;;;;;;;6.97;2.10;;;;;;;;;;5000159;28;20058;-68
2022/10/23 02:34:36;;;;;;;12.25;2.40;;;;;;;;;;4993060;28;20277;-69
2022/10/23 02:37:20;;;;;;;9.70;2.50;;;;;;;;;;4987579;28;20049;-69
2022/10/23 02:39:47;;;;;;;12.35;2.15;;;;;;;;;;4992060;28;20630;-71
2022/10/23 02:42:53;;;;;;;5.63;2.10;;;;;;;;;;4990257;28;20686;-68
2022/10/23 02:45:31;;;;;;;10.57;2.80;;;;;;;;;;4893275;29;20032;-69
2022/10/23 02:48:02;;;;;;;7.40;2.33;;;;;;;;;;4904994;29;20036;-69
2022/10/23 02:50:47;;;;;;;7.13;2.17;;;;;;;;;;4940591;28;20045;-69
2022/10/23 02:53:18;;;;;;;6.18;2.60;;;;;;;;;;4984475;28;20510;-68
2022/10/23 02:55:44;;;;;;;6.75;2.00;;;;;;;;;;4994957;28;20038;-68
2022/10/23 02:58:22;;;;;;;8.98;2.50;;;;;;;;;;4987164;28;20196;-69
2022/10/23 03:00:54;;;;;;;5.60;2.40;;;;;;;;;;4990685;28;20049;-71
2022/10/23 03:03:31;;;;;;;8.48;2.35;;;;;;;;;;4988789;28;20049;-70
2022/10/23 03:05:57;;;;;;;10.15;2.70;;;;;;;;;;4986952;28;20066;-70
2022/10/23 03:08:23;;;;;;;5.90;2.20;;;;;;;;;;4972119;28;20069;-71
2022/10/23 03:10:50;;;;;;;8.15;2.50;;;;;;;;;;4963421;28;20130;-70
2022/10/23 03:13:15;;;;;;;9.95;2.45;;;;;;;;;;4962291;28;20023;-70
2022/10/23 03:15:44;;;;;;;11.82;2.20;;;;;;;;;;4969883;28;20398;-67
2022/10/23 03:18:09;;;;;;;8.85;2.50;;;;;;;;;;4962507;28;20380;-71
2022/10/23 03:20:35;;;;;;;8.85;2.63;;;;;;;;;;4963465;28;20038;-68
2022/10/23 03:23:00;;;;;;;6.10;2.40;;;;;;;;;;4961372;28;20049;-71
2022/10/23 03:25:26;;;;;;;9.25;2.15;;;;;;;;;;4966661;28;20042;-68
2022/10/23 03:27:51;;;;;;;9.00;2.40;;;;;;;;;;4963140;28;20075;-68
2022/10/23 03:30:17;;;;;;;9.55;2.72;;;;;;;;;;4963515;28;20031;-70
2022/10/23 03:32:43;;;;;;;6.93;2.72;;;;;;;;;;4963686;28;20031;-68
2022/10/23 03:35:08;;;;;;;9.48;3.00;;;;;;;;;;4973529;28;20110;-68
2022/10/23 03:37:34;;;;;;;5.18;2.38;;;;;;;;;;4961947;28;20038;-69
2022/10/23 03:39:59;;;;;;;6.93;2.40;;;;;;;;;;4964710;28;20051;-68
2022/10/23 03:42:24;;;;;;;7.70;2.50;;;;;;;;;;4962973;28;20051;-70
2022/10/23 03:44:50;;;;;;;7.38;2.28;;;;;;;;;;4963765;28;20061;-69
2022/10/23 03:47:16;;;;;;;11.90;2.70;;;;;;;;;;4982675;28;20123;-68
2022/10/23 03:49:41;;;;;;;6.18;2.90;;;;;;;;;;4982183;28;20065;-68
2022/10/23 03:52:07;;;;;;;6.47;2.22;;;;;;;;;;4962545;28;20445;-69
2022/10/23 03:54:33;;;;;;;7.47;2.60;;;;;;;;;;4949323;28;20548;-68
2022/10/23 03:56:59;;;;;;;6.55;2.50;;;;;;;;;;4966646;28;20030;-68
2022/10/23 03:59:24;;;;;;;5.45;2.75;;;;;;;;;;4969628;28;20035;-68
2022/10/23 04:01:49;;;;;;;4.10;2.28;;;;;;;;;;4961708;28;20053;-68
2022/10/23 04:04:15;;;;;;;7.22;2.08;;;;;;;;;;4959855;28;20043;-68
2022/10/23 04:06:40;;;;;;;7.07;2.38;;;;;;;;;;4958233;28;20038;-68
2022/10/23 04:09:06;;;;;;;8.93;2.22;;;;;;;;;;4958528;28;20498;-68
2022/10/23 04:11:32;;;;;;;5.43;2.05;;;;;;;;;;4961788;28;20159;-69
2022/10/23 04:13:58;;;;;;;6.60;2.42;;;;;;;;;;4956420;28;20049;-68
2022/10/23 04:16:24;;;;;;;7.50;2.60;;;;;;;;;;4954530;28;20043;-68
2022/10/23 04:18:49;;;;;;;8.43;2.50;;;;;;;;;;4955624;28;20071;-68
2022/10/23 04:21:15;;;;;;;7.05;2.38;;;;;;;;;;4965782;28;20086;-68
2022/10/23 04:23:41;;;;;;;9.98;2.95;;;;;;;;;;4962832;28;20035;-71
2022/10/23 04:26:06;;;;;;;9.50;2.40;;;;;;;;;;4961345;28;20034;-71
2022/10/23 04:28:32;;;;;;;9.18;2.60;;;;;;;;;;4957599;28;20035;-69
2022/10/23 04:30:57;;;;;;;7.50;2.78;;;;;;;;;;4965655;28;20066;-72
2022/10/23 04:33:23;;;;;;;6.72;2.63;;;;;;;;;;4956004;28;20043;-69
2022/10/23 04:35:49;;;;;;;5.90;2.63;;;;;;;;;;4958647;28;20030;-70
2022/10/23 04:38:14;;;;;;;7.95;2.40;;;;;;;;;;4953547;28;20671;-68
2022/10/23 04:40:40;;;;;;;6.75;2.60;;;;;;;;;;4964537;28;20038;-68
2022/10/23 04:43:05;;;;;;;6.63;2.22;;;;;;;;;;4958102;28;20118;-70
2022/10/23 04:45:30;;;;;;;8.80;2.60;;;;;;;;;;4959036;28;20154;-69
2022/10/23 04:47:56;;;;;;;4.35;2.20;;;;;;;;;;4965723;28;20042;-69
2022/10/23 04:50:22;;;;;;;6.32;2.53;;;;;;;;;;4958473;28;20560;-69
2022/10/23 04:52:47;;;;;;;5.65;2.70;;;;;;;;;;4973015;28;20447;-68
2022/10/23 04:55:13;;;;;;;6.22;2.70;;;;;;;;;;4959474;28;20046;-68
2022/10/23 04:57:39;;;;;;;4.13;2.50;;;;;;;;;;4965910;28;20051;-68
2022/10/23 05:00:07;;;;;;;7.60;2.70;;;;;;;;;;4961094;28;20046;-70
2022/10/23 05:02:32;;;;;;;7.22;2.60;;;;;;;;;;4962704;28;20487;-69
2022/10/23 05:04:58;;;;;;;7.57;2.70;;;;;;;;;;4958213;28;20054;-70
2022/10/23 05:09:58;;;;;;;3.60;2.58;;;;;;;;;;4956343;22;20061;-61
2022/10/23 05:12:25;;;;;;;10.15;2.90;;;;;;;;;;4978942;28;20050;-61
2022/10/23 05:14:50;;;;;;;3.35;2.70;;;;;;;;;;4979471;28;20233;-62
2022/10/23 05:17:33;;;;;;;4.07;2.90;;;;;;;;;;4979853;28;20553;-61
2022/10/23 05:20:02;;;;;;;8.38;2.85;;;;;;;;;;4976276;28;20050;-61
2022/10/23 05:22:32;;;;;;;9.48;2.97;;;;;;;;;;4980042;28;20100;-61
2022/10/23 05:25:00;;;;;;;8.77;3.08;;;;;;;;;;4978431;28;20157;-61
2022/10/23 05:27:26;;;;;;;8.40;3.10;;;;;;;;;;4975817;28;20129;-61
2022/10/23 05:29:51;;;;;;;12.65;3.88;;;;;;;;;;4979847;28;20558;-61
2022/10/23 05:32:16;;;;;;;7.65;3.17;;;;;;;;;;4978316;28;20062;-60
2022/10/23 05:34:42;;;;;;;4.82;2.58;;;;;;;;;;4978248;28;20061;-60
2022/10/23 05:37:10;;;;;;;7.10;2.80;;;;;;;;;;4980553;28;20043;-60
2022/10/23 05:39:36;;;;;;;7.75;2.80;;;;;;;;;;4978333;28;20431;-60
2022/10/23 05:42:02;;;;;;;6.38;2.30;;;;;;;;;;4976034;28;20129;-61
2022/10/23 05:44:27;;;;;;;7.88;2.92;;;;;;;;;;4976527;28;20037;-60
2022/10/23 05:46:53;;;;;;;9.43;2.70;;;;;;;;;;4980207;28;20042;-60
2022/10/23 05:49:18;;;;;;;9.45;2.75;;;;;;;;;;4978471;28;20057;-60
2022/10/23 05:51:44;;;;;;;6.47;2.55;;;;;;;;;;4977022;28;20074;-60
2022/10/23 05:54:09;;;;;;;8.18;2.85;;;;;;;;;;4979212;28;20477;-60
2022/10/23 05:56:36;;;;;;;8.27;2.65;;;;;;;;;;4979275;28;20126;-60
2022/10/23 05:59:02;;;;;;;6.07;2.60;;;;;;;;;;4974468;28;20046;-61
2022/10/23 06:01:28;;;;;;;9.45;2.70;;;;;;;;;;4965263;28;20130;-60
2022/10/23 06:03:53;;;;;;;9.00;2.58;;;;;;;;;;4974618;28;20126;-60
2022/10/23 06:06:19;;;;;;;9.35;2.88;;;;;;;;;;4980014;28;20042;-60
2022/10/23 06:08:44;;;;;;;8.65;2.67;;;;;;;;;;4981090;28;22577;-61
2022/10/23 06:11:12;;;;;;;7.40;2.83;;;;;;;;;;4980727;28;20050;-61
2022/10/23 06:13:38;;;;;;;3.90;2.83;;;;;;;;;;4987422;28;20456;-61
2022/10/23 06:16:13;;;;;;;4.15;2.80;;;;;;;;;;4980418;28;20109;-61
2022/10/23 06:18:40;;;;;;;9.13;3.10;;;;;;;;;;4981587;28;20042;-61
2022/10/23 06:21:05;;;;;;;5.43;2.80;;;;;;;;;;4980851;28;20057;-66
2022/10/23 06:23:33;;;;;;;7.13;3.10;;;;;;;;;;4980686;28;20117;-65
2022/10/23 06:25:59;;;;;;;10.70;3.00;;;;;;;;;;4980620;28;20121;-64
2022/10/23 06:28:24;;;;;;;9.35;2.65;;;;;;;;;;4978098;28;20157;-63
2022/10/23 06:30:50;;;;;;;9.30;3.28;;;;;;;;;;4978612;28;20129;-62
2022/10/23 06:33:16;;;;;;;9.63;3.45;;;;;;;;;;4980649;28;20501;-62
2022/10/23 06:35:41;;;;;;;7.47;3.63;;;;;;;;;;4976539;28;20066;-64
2022/10/23 06:38:08;;;;;;;13.93;3.95;;;;;;;;;;4976221;28;20058;-63
2022/10/23 06:40:34;;;;;;;10.57;3.60;;;;;;;;;;4975048;28;20054;-65
2022/10/23 06:42:59;;;;;;;7.60;3.47;;;;;;;;;;4973474;28;20054;-65
2022/10/23 06:45:24;;;;;;;9.48;3.55;;;;;;;;;;4973965;28;20042;-64
2022/10/23 06:47:50;;;;;;;10.38;4.63;;;;;;;;;;4966269;28;20442;-64
2022/10/23 06:50:16;;;;;;;8.88;3.45;;;;;;;;;;4972696;28;20042;-64
2022/10/23 06:52:41;;;;;;;10.45;3.83;;;;;;;;;;4974477;28;20050;-64
2022/10/23 06:55:07;;;;;;;11.82;3.58;;;;;;;;;;4971056;28;20074;-63
2022/10/23 06:57:33;;;;;;;9.15;3.80;;;;;;;;;;4975175;28;20102;-64
2022/10/23 06:59:58;;;;;;;6.63;3.67;;;;;;;;;;4969516;28;20042;-63
2022/10/23 07:02:24;;;;;;;12.30;4.10;;;;;;;;;;4972452;28;20054;-63
2022/10/23 07:04:49;;;;;;;7.55;3.80;;;;;;;;;;4968342;28;20966;-63
2022/10/23 07:07:14;;;;;;;9.38;3.88;;;;;;;;;;4970130;28;20050;-63
2022/10/23 07:09:40;;;;;;;8.82;4.25;;;;;;;;;;4968237;28;20414;-63
2022/10/23 07:12:05;;;;;;;11.77;4.20;;;;;;;;;;4968911;28;20125;-63
2022/10/23 07:14:31;;;;;;;13.48;4.88;;;;;;;;;;4968816;28;20046;-65
2022/10/23 07:16:57;;;;;;;13.40;4.43;;;;;;;;;;4968356;28;21750;-62
2022/10/23 07:19:22;;;;;;;13.63;4.63;;;;;;;;;;4968152;28;20112;-62
2022/10/23 07:21:49;;;;;;;7.50;3.88;;;;;;;;;;4975432;28;20038;-62
2022/10/23 07:24:15;;;;;;;11.23;4.10;;;;;;;;;;4981466;28;20034;-62
2022/10/23 07:26:40;;;;;;;6.15;4.03;;;;;;;;;;4978961;28;20125;-62
2022/10/23 07:29:06;;;;;;;10.77;3.90;;;;;;;;;;4975383;28;20448;-65
2022/10/23 07:31:32;;;;;;;6.40;4.25;;;;;;;;;;4974085;28;20516;-64
2022/10/23 07:33:58;;;;;;;10.57;4.80;;;;;;;;;;4978159;28;20046;-63
2022/10/23 07:36:23;;;;;;;7.10;3.83;;;;;;;;;;4974068;28;20047;-63
2022/10/23 07:38:50;;;;;;;8.85;4.18;;;;;;;;;;4977470;28;20038;-65
2022/10/23 07:41:15;;;;;;;8.48;4.10;;;;;;;;;;4978063;28;20050;-63
2022/10/23 07:43:41;;;;;;;11.77;3.90;;;;;;;;;;4971898;28;20050;-64
2022/10/23 07:46:08;;;;;;;6.68;3.75;;;;;;;;;;4980726;28;20466;-64
2022/10/23 07:48:34;;;;;;;7.10;4.05;;;;;;;;;;4975904;28;20293;-63
2022/10/23 07:51:06;;;;;;;6.38;3.80;;;;;;;;;;4979702;28;20042;-63
2022/10/23 07:53:33;;;;;;;9.77;4.00;;;;;;;;;;4975467;28;20062;-63
2022/10/23 07:56:01;;;;;;;6.50;3.85;;;;;;;;;;4977835;28;20057;-63
2022/10/23 07:58:27;;;;;;;12.00;3.90;;;;;;;;;;4979879;28;21050;-64
2022/10/23 08:00:57;;;;;;;10.95;4.25;;;;;;;;;;4978259;28;20051;-63
2022/10/23 08:03:26;;;;;;;7.88;3.55;;;;;;;;;;4975674;28;20046;-63
2022/10/23 08:05:52;;;;;;;7.28;3.60;;;;;;;;;;4979486;28;20086;-63
2022/10/23 08:08:18;;;;;;;10.30;3.80;;;;;;;;;;4975500;28;20047;-63
2022/10/23 08:10:45;;;;;;;6.70;3.88;;;;;;;;;;4969955;28;20060;-63
2022/10/23 08:13:12;;;;;;;9.05;3.42;;;;;;;;;;4961325;28;20613;-63
2022/10/23 08:15:39;;;;;;;8.30;3.67;;;;;;;;;;4975942;28;20054;-63
2022/10/23 08:18:04;;;;;;;5.78;3.90;;;;;;;;;;4973855;28;20124;-63
2022/10/23 08:20:30;;;;;;;5.55;3.75;;;;;;;;;;4970840;28;20034;-63
2022/10/23 08:22:55;;;;;;;8.50;4.60;;;;;;;;;;4974488;28;20053;-64
2022/10/23 08:25:21;;;;;;;7.53;3.80;;;;;;;;;;4970814;28;20050;-63
2022/10/23 08:27:46;;;;;;;11.60;4.43;;;;;;;;;;4965487;28;20110;-63
2022/10/23 08:30:12;;;;;;;7.10;3.90;;;;;;;;;;4964626;28;20952;-63
2022/10/23 08:32:37;;;;;;;11.18;4.82;;;;;;;;;;4961253;28;20042;-64
2022/10/23 08:35:03;;;;;;;7.82;4.20;;;;;;;;;;4968312;28;20050;-63
2022/10/23 08:37:28;;;;;;;9.63;4.13;;;;;;;;;;4969437;28;20467;-63
2022/10/23 08:39:54;;;;;;;10.25;4.55;;;;;;;;;;4971058;28;20507;-64
2022/10/23 08:42:26;;;;;;;11.25;4.18;;;;;;;;;;4976078;28;20385;-63
2022/10/23 08:45:06;;;;;;;10.30;4.32;;;;;;;;;;4972461;28;20494;-64
2022/10/23 08:47:39;;;;;;;10.38;4.15;;;;;;;;;;4967044;28;20050;-63
2022/10/23 08:50:12;;;;;;;9.40;4.40;;;;;;;;;;4968103;28;20050;-64
2022/10/23 08:52:43;;;;;;;8.45;4.45;;;;;;;;;;4972528;28;20118;-63
2022/10/23 08:55:29;;;;;;;10.35;4.32;;;;;;;;;;4974377;28;20046;-64
2022/10/23 08:58:04;;;;;;;10.23;4.63;;;;;;;;;;4975021;28;20148;-63
2022/10/23 09:00:30;;;;;;;8.10;3.95;;;;;;;;;;4972812;28;20133;-62
2022/10/23 09:02:59;;;;;;;9.25;4.15;;;;;;;;;;4968484;28;20105;-62
2022/10/23 09:05:30;;;;;;;9.05;4.35;;;;;;;;;;4971993;28;20137;-63
2022/10/23 09:08:20;;;;;;;6.38;3.88;;;;;;;;;;4969275;28;20200;-65
2022/10/23 09:11:03;;;;;;;11.35;4.30;;;;;;;;;;4966572;28;20096;-63
2022/10/23 09:13:39;;;;;;;;;;;;;;;;;;4963192;28;20073;-62
2022/10/23 09:16:34;;;;;;;10.90;3.83;;;;;;;;;;4961173;28;19926;-62
2022/10/23 09:18:59;;;;;;;12.73;3.80;;;;;;;;;;4945435;28;20659;-62
2022/10/23 09:21:28;;;;;;;10.00;4.55;;;;;;;;;;4965757;28;20045;-62
2022/10/23 09:23:54;;;;;;;7.93;4.38;;;;;;;;;;4964332;28;20409;-62
2022/10/23 09:26:20;;;;;;;9.35;4.20;;;;;;;;;;4964496;28;20138;-63
2022/10/23 09:28:54;;;;;;;8.45;4.68;;;;;;;;;;4958407;28;20144;-62
2022/10/23 09:31:19;;;;;;;14.35;4.78;;;;;;;;;;4963155;28;20073;-63
2022/10/23 09:33:56;;;;;;;9.57;4.45;;;;;;;;;;4964089;28;20073;-62
2022/10/23 09:36:24;;;;;;;12.48;4.60;;;;;;;;;;4968680;28;20062;-62
2022/10/23 09:38:52;;;;;;;6.45;3.85;;;;;;;;;;4965875;28;20034;-62
2022/10/23 09:41:26;;;;;;;7.65;4.18;;;;;;;;;;4978702;28;20050;-62
2022/10/23 09:44:22;;;;;;;9.82;3.85;;;;;;;;;;4975626;28;20185;-62
2022/10/23 09:46:53;;;;;;;10.85;4.05;;;;;;;;;;4973086;28;20081;-62
2022/10/23 09:49:28;;;;;;;12.63;4.13;;;;;;;;;;4974860;28;20057;-63
2022/10/23 09:51:53;;;;;;;11.90;3.88;;;;;;;;;;4977136;28;20054;-62
2022/10/23 09:54:22;;;;;;;22.63;4.13;;;;;;;;;;4975944;28;20493;-63
2022/10/23 09:56:49;;;;;;;12.05;4.00;;;;;;;;;;4976302;28;20092;-63
2022/10/23 09:59:14;;;;;;;9.00;2.85;;;;;;;;;;4966406;28;20057;-63
2022/10/23 10:01:55;;;;;;;10.45;2.75;;;;;;;;;;4970241;28;20387;-64
2022/10/23 10:04:50;;;;;;;5.57;3.15;;;;;;;;;;4967321;28;21643;-64
2022/10/23 10:07:23;;;;;;;13.85;4.03;;;;;;;;;;4966933;28;20058;-63
2022/10/23 10:09:49;;;;;;;9.80;2.95;;;;;;;;;;4973701;28;20144;-64
2022/10/23 10:12:20;;;;;;;7.57;3.15;;;;;;;;;;4974549;28;20412;-64
2022/10/23 10:15:05;;;;;;;10.70;2.72;;;;;;;;;;4975668;28;20448;-65
2022/10/23 10:17:42;;;;;;;11.07;2.63;;;;;;;;;;4980882;28;20149;-65
2022/10/23 10:20:27;;;;;;;8.48;2.35;;;;;;;;;;4975227;28;20051;-66
2022/10/23 10:22:58;;;;;;;3.95;2.22;;;;;;;;;;4975244;28;20080;-64
2022/10/23 10:25:43;;;;;;;4.78;2.30;;;;;;;;;;4971310;28;20047;-64
2022/10/23 10:28:25;;;;;;;8.95;2.47;;;;;;;;;;4974334;28;20047;-64
2022/10/23 10:31:12;;;;;;;4.10;2.20;;;;;;;;;;4981241;28;20042;-64
2022/10/23 10:33:52;;;;;;;14.27;2.40;;;;;;;;;;4979056;28;20410;-64
2022/10/23 10:36:33;;;;;;;5.82;2.33;;;;;;;;;;4984403;28;20060;-64
2022/10/23 10:39:02;;;;;;;4.50;2.28;;;;;;;;;;4975126;28;20116;-65
2022/10/23 10:41:37;;;;;;;7.47;2.28;;;;;;;;;;4978359;28;20470;-65
2022/10/23 10:44:27;;;;;;;5.00;1.70;;;;;;;;;;4971661;28;20043;-65
2022/10/23 10:47:05;;;;;;;5.40;2.00;;;;;;;;;;4968152;28;20410;-65
2022/10/23 10:49:40;;;;;;;4.45;1.60;;;;;;;;;;4971843;28;20140;-63
2022/10/23 10:52:22;;;;;;;6.65;2.20;;;;;;;;;;4973890;28;20062;-63
2022/10/23 10:55:03;;;;;;;5.22;1.80;;;;;;;;;;4972939;28;20054;-62
2022/10/23 10:57:32;;;;;;;3.80;1.55;;;;;;;;;;4978260;28;20405;-63
2022/10/23 11:00:01;;;;;;;5.50;1.70;;;;;;;;;;4973094;28;20133;-62
2022/10/23 11:02:27;;;;;;;4.78;1.80;;;;;;;;;;4977141;28;20573;-62
2022/10/23 11:05:01;;;;;;;3.50;1.70;;;;;;;;;;4968326;28;20054;-61
2022/10/23 11:07:33;;;;;;;6.80;1.80;;;;;;;;;;4973352;28;20243;-62
2022/10/23 11:10:02;;;;;;;3.78;1.90;;;;;;;;;;4971177;28;20066;-64
2022/10/23 11:12:28;;;;;;;4.75;1.60;;;;;;;;;;4967337;28;20513;-64
2022/10/23 11:14:54;;;;;;;8.77;1.90;;;;;;;;;;4967744;28;20173;-63
2022/10/23 11:17:39;;;;;;;3.67;1.50;;;;;;;;;;4971580;28;21972;-63
2022/10/23 11:20:15;;;;;;;6.72;1.55;;;;;;;;;;4977049;28;20512;-65
2022/10/23 11:22:48;;;;;;;4.75;1.80;;;;;;;;;;4967940;28;20187;-64
2022/10/23 11:25:32;;;;;;;;;;;;;;;;;;4974354;28;20149;-62
2022/10/23 11:28:17;;;;;;;4.15;1.50;;;;;;;;;;4968691;28;19926;-63
2022/10/23 11:31:15;;;;;;;4.15;1.88;;;;;;;;;;4965946;28;20065;-65
2022/10/23 11:34:02;;;;;;;7.40;1.88;;;;;;;;;;4971966;28;20128;-62
2022/10/23 11:36:42;;;;;;;4.85;2.67;;;;;;;;;;4975871;28;20137;-65
2022/10/23 11:39:29;;;;;;;2.92;1.80;;;;;;;;;;4975555;28;20046;-65
2022/10/23 11:42:13;;;;;;;4.13;1.90;;;;;;;;;;4973246;28;20038;-64
2022/10/23 11:44:47;;;;;;;4.57;1.60;;;;;;;;;;4979014;28;20047;-64
2022/10/23 11:47:31;;;;;;;6.93;1.75;;;;;;;;;;4972619;28;20104;-65
2022/10/23 11:50:05;;;;;;;3.35;1.50;;;;;;;;;;4970901;28;20051;-64
2022/10/23 11:52:31;;;;;;;2.45;1.50;;;;;;;;;;4970895;28;20520;-63
2022/10/23 11:55:16;;;;;;;3.70;1.58;;;;;;;;;;4971921;28;20054;-63
2022/10/23 11:57:45;;;;;;;3.63;1.70;;;;;;;;;;4978288;28;20100;-63
2022/10/23 12:00:21;;;;;;;4.72;1.95;;;;;;;;;;4972844;28;20397;-64
2022/10/23 12:02:52;;;;;;;2.92;1.90;;;;;;;;;;4971736;28;20034;-63
2022/10/23 12:05:33;;;;;;;6.50;2.00;;;;;;;;;;4974115;28;20050;-63
2022/10/23 12:08:01;;;;;;;3.15;1.92;;;;;;;;;;4972010;28;20062;-63
2022/10/23 12:10:33;;;;;;;6.88;2.28;;;;;;;;;;4971129;28;20047;-63
2022/10/23 12:13:02;;;;;;;4.82;2.28;;;;;;;;;;4973400;28;20109;-63
2022/10/23 12:15:28;;;;;;;4.75;1.80;;;;;;;;;;4973938;28;20383;-62
2022/10/23 12:18:07;;;;;;;9.70;2.20;;;;;;;;;;4974019;28;20050;-63
2022/10/23 12:20:38;;;;;;;6.68;2.33;;;;;;;;;;4968253;28;20058;-63
2022/10/23 12:23:22;;;;;;;3.45;1.90;;;;;;;;;;4973426;28;20053;-63
2022/10/23 12:25:53;;;;;;;4.55;1.67;;;;;;;;;;4973810;28;20050;-63
2022/10/23 12:28:27;;;;;;;6.30;1.95;;;;;;;;;;4975996;28;20054;-62
2022/10/23 12:31:19;;;;;;;2.58;1.75;;;;;;;;;;4967992;28;20144;-63
2022/10/23 12:34:17;;;;;;;4.47;1.60;;;;;;;;;;4972405;28;20140;-63
2022/10/23 12:37:18;;;;;;;7.65;2.17;;;;;;;;;;4972086;28;20046;-63
2022/10/23 12:39:52;;;;;;;5.30;1.80;;;;;;;;;;4957118;28;20051;-64
2022/10/23 12:42:23;;;;;;;9.23;2.50;;;;;;;;;;4973685;28;20041;-63
2022/10/23 12:45:17;;;;;;;3.22;1.92;;;;;;;;;;4968783;28;20037;-65
2022/10/23 12:47:47;;;;;;;5.78;2.00;;;;;;;;;;4991622;28;20051;-64
2022/10/23 12:50:27;;;;;;;5.13;1.88;;;;;;;;;;4972582;28;20046;-66
2022/10/23 12:53:01;;;;;;;2.60;1.60;;;;;;;;;;4977332;28;20046;-63
2022/10/23 12:55:31;;;;;;;4.70;1.70;;;;;;;;;;4973579;28;21216;-62
2022/10/23 12:57:57;;;;;;;1.88;1.58;;;;;;;;;;4975731;28;20054;-63
2022/10/23 13:00:23;;;;;;;4.85;2.03;;;;;;;;;;4970555;28;20109;-62
2022/10/23 13:03:00;;;;;;;3.95;2.00;;;;;;;;;;4974339;28;20804;-62
2022/10/23 13:05:26;;;;;;;4.72;1.80;;;;;;;;;;4969882;28;20105;-62
2022/10/23 13:07:52;;;;;;;6.00;1.98;;;;;;;;;;4976621;28;20177;-63
2022/10/23 13:10:20;;;;;;;4.65;1.70;;;;;;;;;;4971123;28;20584;-63
2022/10/23 13:12:58;;;;;;;4.88;1.75;;;;;;;;;;4973316;28;20047;-63
2022/10/23 13:15:25;;;;;;;8.18;1.80;;;;;;;;;;4964665;28;20803;-64
2022/10/23 13:17:56;;;;;;;3.10;1.60;;;;;;;;;;4950190;28;20047;-63
2022/10/23 13:20:34;;;;;;;6.03;1.70;;;;;;;;;;4972537;28;20085;-63
2022/10/23 13:22:59;;;;;;;2.75;1.73;;;;;;;;;;4969928;28;21746;-63
2022/10/23 13:25:29;;;;;;;3.08;1.90;;;;;;;;;;4972457;28;20085;-63
2022/10/23 13:28:25;;;;;;;4.25;1.88;;;;;;;;;;4978438;28;20046;-63
2022/10/23 13:31:06;;;;;;;4.63;1.73;;;;;;;;;;4973206;28;20042;-62
2022/10/23 13:33:36;;;;;;;3.47;1.58;;;;;;;;;;4970687;28;20051;-62
2022/10/23 13:36:06;;;;;;;5.32;1.85;;;;;;;;;;4973301;28;20495;-62
2022/10/23 13:38:36;;;;;;;4.20;1.80;;;;;;;;;;4974956;28;20085;-62
2022/10/23 13:41:04;;;;;;;4.38;1.58;;;;;;;;;;4973698;28;20051;-62
2022/10/23 13:43:31;;;;;;;2.10;1.67;;;;;;;;;;4974193;28;20074;-62
2022/10/23 13:45:58;;;;;;;3.80;1.70;;;;;;;;;;4975951;28;20481;-63
2022/10/23 13:48:24;;;;;;;2.58;1.50;;;;;;;;;;4974522;28;20057;-62
2022/10/23 13:50:50;;;;;;;3.28;1.85;;;;;;;;;;4975926;28;20034;-62
2022/10/23 13:53:16;;;;;;;3.97;2.30;;;;;;;;;;4962142;28;20054;-63
2022/10/23 13:55:44;;;;;;;4.25;2.00;;;;;;;;;;4975603;28;20061;-63
2022/10/23 13:58:10;;;;;;;4.43;2.63;;;;;;;;;;4969260;28;20039;-62
2022/10/23 14:00:37;;;;;;;6.05;3.28;;;;;;;;;;4973903;28;20039;-63
2022/10/23 14:03:03;;;;;;;5.22;3.58;;;;;;;;;;4974938;28;20061;-62
2022/10/23 14:05:29;;;;;;;2.95;1.80;;;;;;;;;;4967778;28;20490;-63
2022/10/23 14:07:54;;;;;;;6.15;3.35;;;;;;;;;;4971374;28;20061;-62
2022/10/23 14:10:20;;;;;;;11.88;2.90;;;;;;;;;;4971007;28;20110;-62
2022/10/23 14:12:46;;;;;;;11.30;2.58;;;;;;;;;;4972238;28;20055;-62
2022/10/23 14:15:11;;;;;;;4.93;2.50;;;;;;;;;;4972058;28;20034;-62
2022/10/23 14:17:37;;;;;;;6.75;2.55;;;;;;;;;;4972928;28;20418;-61
2022/10/23 14:20:04;;;;;;;5.57;2.10;;;;;;;;;;4968398;28;20116;-63
2022/10/23 14:22:29;;;;;;;4.68;1.90;;;;;;;;;;4967703;28;20058;-62
2022/10/23 14:24:54;;;;;;;3.63;2.30;;;;;;;;;;4969122;28;20078;-64
2022/10/23 14:27:20;;;;;;;3.30;2.05;;;;;;;;;;4973806;28;20038;-61
2022/10/23 14:29:45;;;;;;;4.18;2.20;;;;;;;;;;4974454;28;20039;-61
2022/10/23 14:32:11;;;;;;;9.30;2.17;;;;;;;;;;4973298;28;20501;-64
2022/10/23 14:34:40;;;;;;;3.33;2.10;;;;;;;;;;4972070;28;20129;-64
2022/10/23 14:37:05;;;;;;;2.90;1.70;;;;;;;;;;4973578;28;20054;-63
2022/10/23 14:39:31;;;;;;;3.33;2.35;;;;;;;;;;4975765;28;20050;-62
2022/10/23 14:41:56;;;;;;;5.63;2.20;;;;;;;;;;4973439;28;20034;-62
2022/10/23 14:44:21;;;;;;;4.18;2.28;;;;;;;;;;4974759;28;20073;-63
2022/10/23 14:46:47;;;;;;;3.97;2.30;;;;;;;;;;4973705;28;20051;-63
2022/10/23 14:49:12;;;;;;;5.10;2.60;;;;;;;;;;4978227;28;20051;-63
2022/10/23 14:51:38;;;;;;;5.05;3.20;;;;;;;;;;4974993;28;20046;-63
2022/10/23 14:54:05;;;;;;;8.32;3.10;;;;;;;;;;4972150;28;20165;-63
2022/10/23 14:56:32;;;;;;;8.23;3.25;;;;;;;;;;4980581;28;20207;-65
2022/10/23 14:59:02;;;;;;;5.35;3.13;;;;;;;;;;4972095;28;20629;-63
2022/10/23 15:01:32;;;;;;;5.90;3.42;;;;;;;;;;4979850;28;20559;-63
2022/10/23 15:03:57;;;;;;;8.25;2.88;;;;;;;;;;4974373;28;20134;-62